Time;durP1;ratioP1;P1;durP2;ratioP2;P2;SDS_P1;SDS_P2;PMS_P1;PMS_P2;Temp;Humidity;BMP_temperature;BMP_pressure;BME280_temperature;BME280_humidity;BME280_pressure;Samples;Min_cycle;Max_cycle;Signal;HPM_P1;HPM_P2
2022/10/23 00:03:55;;;;;;;2.17;1.60;;;;;;;;;;10404272;28;20068;-78
2022/10/23 00:09:00;;;;;;;2.95;1.25;;;;;;;;;;10417543;28;20088;-77
2022/10/23 00:14:04;;;;;;;1.67;1.30;;;;;;;;;;10450545;28;20526;-78
2022/10/23 00:19:07;;;;;;;;;;;;;;;;;;10433707;28;20047;-77
2022/10/23 00:24:12;;;;;;;2.42;1.50;;;;;;;;;;10451309;28;19980;-78
2022/10/23 00:29:16;;;;;;;4.50;1.75;;;;;;;;;;10440942;28;20041;-78
2022/10/23 00:34:19;;;;;;;1.35;0.85;;;;;;;;;;10423898;28;20510;-77
2022/10/23 00:39:26;;;;;;;3.72;1.88;;;;;;;;;;10420593;28;20064;-78
2022/10/23 00:44:53;;;;;;;3.15;0.85;;;;;;;;;;10454446;28;20490;-79
2022/10/23 00:49:56;;;;;;;1.05;0.85;;;;;;;;;;10409361;28;20061;-77
2022/10/23 00:55:00;;;;;;;1.57;1.03;;;;;;;;;;10413817;28;20084;-77
2022/10/23 01:00:04;;;;;;;1.73;1.30;;;;;;;;;;10420909;28;20061;-78
2022/10/23 01:05:07;;;;;;;1.73;0.90;;;;;;;;;;10415101;28;20049;-77
2022/10/23 01:10:10;;;;;;;;;;;;;;;;;;10413120;28;20065;-78
2022/10/23 01:15:16;;;;;;;3.15;1.52;;;;;;;;;;10445681;28;19989;-77
2022/10/23 01:20:27;;;;;;;1.17;0.63;;;;;;;;;;10417032;28;20065;-77
2022/10/23 01:25:40;;;;;;;1.52;1.08;;;;;;;;;;10416122;28;20102;-77
2022/10/23 01:30:44;;;;;;;2.95;1.13;;;;;;;;;;10418054;28;20045;-77
2022/10/23 01:35:49;;;;;;;0.57;0.40;;;;;;;;;;10449860;28;20048;-77
2022/10/23 01:40:56;;;;;;;1.83;0.63;;;;;;;;;;10436657;28;20041;-77
2022/10/23 01:46:02;;;;;;;1.42;1.00;;;;;;;;;;10450332;28;20071;-77
2022/10/23 01:51:07;;;;;;;2.17;0.60;;;;;;;;;;10441769;28;20155;-78
2022/10/23 01:56:12;;;;;;;4.57;1.13;;;;;;;;;;10460840;28;20193;-77
2022/10/23 02:01:14;;;;;;;;;;;;;;;;;;10466797;28;20057;-77
2022/10/23 02:06:19;;;;;;;0.80;0.63;;;;;;;;;;10440519;28;20006;-77
2022/10/23 02:11:22;;;;;;;3.15;1.00;;;;;;;;;;10434433;28;20041;-78
2022/10/23 02:16:30;;;;;;;3.90;1.08;;;;;;;;;;10445606;28;20076;-78
2022/10/23 02:21:39;;;;;;;0.68;0.40;;;;;;;;;;10459602;28;20052;-77
2022/10/23 02:26:43;;;;;;;1.95;0.80;;;;;;;;;;10442768;28;20060;-77
2022/10/23 02:31:46;;;;;;;1.05;0.57;;;;;;;;;;10419183;28;20044;-77
2022/10/23 02:36:50;;;;;;;0.38;0.38;;;;;;;;;;10415920;28;20045;-77
2022/10/23 02:41:56;;;;;;;1.10;0.50;;;;;;;;;;10443313;28;20536;-78
2022/10/23 02:47:18;;;;;;;0.63;0.57;;;;;;;;;;10449428;28;20068;-77
2022/10/23 02:52:25;;;;;;;0.73;0.60;;;;;;;;;;10408865;28;20566;-78
2022/10/23 02:57:32;;;;;;;0.35;0.35;;;;;;;;;;10424981;28;20072;-78
2022/10/23 03:02:37;;;;;;;1.30;1.00;;;;;;;;;;10424417;28;20045;-77
2022/10/23 03:07:41;;;;;;;1.83;0.40;;;;;;;;;;10415889;28;20044;-77
2022/10/23 03:12:46;;;;;;;1.38;1.08;;;;;;;;;;10446110;28;20064;-77
2022/10/23 03:17:48;;;;;;;1.77;0.90;;;;;;;;;;10441611;28;20044;-78
2022/10/23 03:22:53;;;;;;;0.57;0.47;;;;;;;;;;10454668;28;20394;-77
2022/10/23 03:27:55;;;;;;;1.05;0.70;;;;;;;;;;10436361;28;20173;-78
2022/10/23 03:32:58;;;;;;;2.80;0.63;;;;;;;;;;10431347;28;20038;-78
2022/10/23 03:38:02;;;;;;;0.83;0.83;;;;;;;;;;10388480;28;20060;-78
2022/10/23 03:43:05;;;;;;;1.90;1.10;;;;;;;;;;10461276;28;20036;-77
2022/10/23 03:48:08;;;;;;;1.63;1.10;;;;;;;;;;10443017;28;20470;-78
2022/10/23 03:53:12;;;;;;;1.10;0.90;;;;;;;;;;10446889;28;20049;-78
2022/10/23 03:58:15;;;;;;;0.47;0.47;;;;;;;;;;10410343;28;20041;-77
2022/10/23 04:03:17;;;;;;;1.40;0.77;;;;;;;;;;10425197;28;20048;-77
2022/10/23 04:08:22;;;;;;;13.95;0.90;;;;;;;;;;10420320;28;20085;-78
2022/10/23 04:13:24;;;;;;;1.00;0.65;;;;;;;;;;10453188;28;20055;-77
2022/10/23 04:18:27;;;;;;;1.75;0.90;;;;;;;;;;10429246;28;20161;-77
2022/10/23 04:23:31;;;;;;;3.70;1.00;;;;;;;;;;10439401;28;20286;-77
2022/10/23 04:28:34;;;;;;;1.65;1.00;;;;;;;;;;10424336;28;20045;-77
2022/10/23 04:33:37;;;;;;;1.02;0.80;;;;;;;;;;10429863;28;20399;-77
2022/10/23 04:38:41;;;;;;;5.97;0.90;;;;;;;;;;10417684;28;20037;-77
2022/10/23 04:43:44;;;;;;;1.55;0.88;;;;;;;;;;10446306;28;20224;-77
2022/10/23 04:48:47;;;;;;;0.70;0.63;;;;;;;;;;10427942;28;20049;-78
2022/10/23 04:53:51;;;;;;;1.70;0.73;;;;;;;;;;10450324;28;20487;-77
2022/10/23 04:58:54;;;;;;;3.60;0.80;;;;;;;;;;10428570;28;20132;-78
2022/10/23 05:03:57;;;;;;;1.37;0.90;;;;;;;;;;10418806;28;20045;-78
2022/10/23 05:09:01;;;;;;;2.47;1.00;;;;;;;;;;10418475;28;20129;-78
2022/10/23 05:14:04;;;;;;;;;;;;;;;;;;10448834;28;20422;-78
2022/10/23 05:19:08;;;;;;;1.85;0.95;;;;;;;;;;10437830;28;19921;-78
2022/10/23 05:24:12;;;;;;;;;;;;;;;;;;10450926;28;20036;-77
2022/10/23 05:29:16;;;;;;;2.22;1.20;;;;;;;;;;10425617;28;19924;-78
2022/10/23 05:34:20;;;;;;;0.50;0.50;;;;;;;;;;10414475;28;20037;-78
2022/10/23 05:39:23;;;;;;;1.15;0.70;;;;;;;;;;10409883;28;20041;-77
2022/10/23 05:44:27;;;;;;;0.65;0.65;;;;;;;;;;10442731;28;20041;-77
2022/10/23 05:49:30;;;;;;;1.25;0.90;;;;;;;;;;10424757;28;20055;-78
2022/10/23 05:54:33;;;;;;;1.75;0.80;;;;;;;;;;10443729;28;20037;-77
2022/10/23 05:59:37;;;;;;;1.35;0.75;;;;;;;;;;10423303;28;20131;-77
2022/10/23 06:04:39;;;;;;;;;;;;;;;;;;10406980;28;20034;-78
2022/10/23 06:09:42;;;;;;;1.65;0.60;;;;;;;;;;10422535;28;19971;-78
2022/10/23 06:14:46;;;;;;;1.05;0.88;;;;;;;;;;10449708;28;20102;-78
2022/10/23 06:19:49;;;;;;;1.15;0.82;;;;;;;;;;10427219;28;20134;-78
2022/10/23 06:24:53;;;;;;;2.42;1.38;;;;;;;;;;10449950;28;20044;-78
2022/10/23 06:29:59;;;;;;;1.25;1.00;;;;;;;;;;10412534;28;20087;-79
2022/10/23 06:35:02;;;;;;;2.00;1.13;;;;;;;;;;10420590;28;20459;-79
2022/10/23 06:40:05;;;;;;;3.25;1.20;;;;;;;;;;10411316;28;20049;-78
2022/10/23 06:45:10;;;;;;;1.50;1.30;;;;;;;;;;10448866;28;20041;-78
2022/10/23 06:50:12;;;;;;;2.40;1.20;;;;;;;;;;10439853;28;20049;-78
2022/10/23 06:55:17;;;;;;;1.70;1.30;;;;;;;;;;10447644;28;20056;-78
2022/10/23 07:00:21;;;;;;;3.10;1.50;;;;;;;;;;10434776;28;20047;-78
2022/10/23 07:05:24;;;;;;;1.45;1.35;;;;;;;;;;10413176;28;20315;-78
2022/10/23 07:10:26;;;;;;;1.35;1.15;;;;;;;;;;10422305;28;20074;-78
2022/10/23 07:15:30;;;;;;;1.60;1.50;;;;;;;;;;10454998;28;20045;-78
2022/10/23 07:20:34;;;;;;;2.55;1.20;;;;;;;;;;10440046;28;20098;-78
2022/10/23 07:25:37;;;;;;;1.35;1.25;;;;;;;;;;10444112;28;20045;-79
2022/10/23 07:30:40;;;;;;;;;;;;;;;;;;10434060;28;20505;-79
2022/10/23 07:35:46;;;;;;;2.47;1.20;;;;;;;;;;10411780;28;20374;-79
2022/10/23 07:40:49;;;;;;;1.65;1.30;;;;;;;;;;10424925;28;20040;-78
2022/10/23 07:45:51;;;;;;;;;;;;;;;;;;10428179;28;20038;-77
2022/10/23 07:50:57;;;;;;;2.35;1.25;;;;;;;;;;10439257;28;20224;-78
2022/10/23 07:56:01;;;;;;;1.25;1.15;;;;;;;;;;10416233;28;20047;-78
2022/10/23 08:01:11;;;;;;;2.35;1.48;;;;;;;;;;10429925;28;20456;-79
2022/10/23 08:06:15;;;;;;;4.80;1.25;;;;;;;;;;10435131;28;20402;-78
2022/10/23 08:11:23;;;;;;;2.40;1.38;;;;;;;;;;10429181;28;20047;-78
2022/10/23 08:16:26;;;;;;;2.45;1.42;;;;;;;;;;10437742;28;20046;-77
2022/10/23 08:21:30;;;;;;;1.40;1.30;;;;;;;;;;10407378;28;20131;-78
2022/10/23 08:26:34;;;;;;;2.25;1.30;;;;;;;;;;10401723;28;20048;-78
2022/10/23 08:31:36;;;;;;;1.40;1.30;;;;;;;;;;10435045;28;20449;-78
2022/10/23 08:36:41;;;;;;;2.08;1.25;;;;;;;;;;10415270;28;20451;-77
2022/10/23 08:41:47;;;;;;;2.38;1.35;;;;;;;;;;10443528;28;20103;-78
2022/10/23 08:46:52;;;;;;;2.83;1.13;;;;;;;;;;10440647;28;20053;-79
2022/10/23 08:51:58;;;;;;;1.40;1.30;;;;;;;;;;10444710;28;20558;-78
2022/10/23 08:57:07;;;;;;;1.63;1.20;;;;;;;;;;10417795;28;20042;-78
2022/10/23 09:02:15;;;;;;;2.20;1.10;;;;;;;;;;10422806;28;20045;-79
2022/10/23 09:07:23;;;;;;;1.40;1.15;;;;;;;;;;10409007;28;20050;-79
2022/10/23 09:12:27;;;;;;;1.65;1.45;;;;;;;;;;10401776;28;20046;-78
2022/10/23 09:17:30;;;;;;;1.20;1.08;;;;;;;;;;10408992;28;20049;-78
2022/10/23 09:22:34;;;;;;;1.40;1.00;;;;;;;;;;10444703;28;20049;-78
2022/10/23 09:27:38;;;;;;;2.10;1.63;;;;;;;;;;10421580;28;20107;-78
2022/10/23 09:32:42;;;;;;;1.20;1.10;;;;;;;;;;10390830;28;20548;-77
2022/10/23 09:37:47;;;;;;;1.15;1.05;;;;;;;;;;10411794;28;20478;-79
2022/10/23 09:42:51;;;;;;;1.98;1.50;;;;;;;;;;10444334;28;20386;-80
2022/10/23 09:48:04;;;;;;;1.88;1.27;;;;;;;;;;10438749;28;20075;-78
2022/10/23 09:53:15;;;;;;;2.63;1.27;;;;;;;;;;10451376;28;20057;-78
2022/10/23 09:58:20;;;;;;;2.20;1.70;;;;;;;;;;10415506;28;20049;-78
2022/10/23 10:03:24;;;;;;;3.05;1.50;;;;;;;;;;10428037;28;20044;-79
2022/10/23 10:08:40;;;;;;;1.73;1.60;;;;;;;;;;10443267;28;20044;-79
2022/10/23 10:13:56;;;;;;;2.90;1.83;;;;;;;;;;10443866;28;20074;-79
2022/10/23 10:19:03;;;;;;;2.17;1.77;;;;;;;;;;10433596;28;20045;-78
2022/10/23 10:24:17;;;;;;;2.83;1.85;;;;;;;;;;10442396;28;20092;-78
2022/10/23 10:29:28;;;;;;;1.80;1.70;;;;;;;;;;10438000;28;20056;-78
2022/10/23 10:34:41;;;;;;;3.47;2.10;;;;;;;;;;10426554;28;20040;-78
2022/10/23 10:39:47;;;;;;;4.55;1.80;;;;;;;;;;10413963;28;20103;-78
2022/10/23 10:44:55;;;;;;;2.35;1.95;;;;;;;;;;10450243;28;20125;-78
2022/10/23 10:50:02;;;;;;;1.90;1.80;;;;;;;;;;10431613;28;20052;-78
2022/10/23 10:55:14;;;;;;;3.42;1.80;;;;;;;;;;10437380;28;20495;-78
2022/10/23 11:00:19;;;;;;;2.20;1.40;;;;;;;;;;10422621;28;20053;-78
2022/10/23 11:05:25;;;;;;;1.70;1.52;;;;;;;;;;10375133;28;190122;-78
2022/10/23 11:10:29;;;;;;;3.55;1.40;;;;;;;;;;10411583;28;20501;-78
2022/10/23 11:15:35;;;;;;;2.25;1.30;;;;;;;;;;10437131;28;20056;-78
2022/10/23 11:20:49;;;;;;;1.42;1.33;;;;;;;;;;10395579;28;20045;-78
2022/10/23 11:26:03;;;;;;;3.10;1.50;;;;;;;;;;10420956;28;20069;-79
2022/10/23 11:31:11;;;;;;;3.17;1.30;;;;;;;;;;10426889;28;20033;-77
2022/10/23 11:36:16;;;;;;;3.22;1.20;;;;;;;;;;10410369;28;20053;-77
2022/10/23 11:41:22;;;;;;;1.42;1.10;;;;;;;;;;10429365;28;20037;-77
2022/10/23 11:46:30;;;;;;;2.72;1.20;;;;;;;;;;10435305;28;20163;-77
2022/10/23 11:51:34;;;;;;;3.22;1.92;;;;;;;;;;10446866;28;20083;-78
2022/10/23 11:56:50;;;;;;;2.90;1.52;;;;;;;;;;10426501;28;20029;-77
2022/10/23 12:01:54;;;;;;;3.38;1.73;;;;;;;;;;10433731;28;20548;-77
2022/10/23 12:06:59;;;;;;;2.40;1.13;;;;;;;;;;10396478;28;20054;-78
2022/10/23 12:12:20;;;;;;;3.03;1.10;;;;;;;;;;10435145;28;20053;-77
2022/10/23 12:17:34;;;;;;;1.45;1.20;;;;;;;;;;10429651;28;20054;-78
2022/10/23 12:22:43;;;;;;;2.83;1.10;;;;;;;;;;10447614;28;20426;-78
2022/10/23 12:27:48;;;;;;;1.00;0.90;;;;;;;;;;10443569;28;20041;-78
2022/10/23 12:33:08;;;;;;;1.45;1.00;;;;;;;;;;10432750;28;20041;-78
2022/10/23 12:38:14;;;;;;;1.58;1.10;;;;;;;;;;10392748;28;20064;-79
2022/10/23 12:43:23;;;;;;;1.60;0.90;;;;;;;;;;10446222;28;20068;-77
2022/10/23 12:48:29;;;;;;;1.98;1.20;;;;;;;;;;10425398;28;20139;-78
2022/10/23 12:53:33;;;;;;;2.15;1.00;;;;;;;;;;10455065;28;20398;-77
2022/10/23 12:58:37;;;;;;;2.70;1.05;;;;;;;;;;10413600;28;20038;-77
2022/10/23 13:03:43;;;;;;;3.13;1.20;;;;;;;;;;10404711;28;20045;-79
2022/10/23 13:08:48;;;;;;;10.85;1.30;;;;;;;;;;10418613;28;20068;-79
2022/10/23 13:13:53;;;;;;;3.97;1.25;;;;;;;;;;10392661;28;20119;-77
2022/10/23 13:18:58;;;;;;;2.67;1.20;;;;;;;;;;10385416;28;20057;-79
2022/10/23 13:24:02;;;;;;;2.97;1.30;;;;;;;;;;10407143;28;20121;-77
2022/10/23 13:29:17;;;;;;;3.78;1.30;;;;;;;;;;10435190;28;20159;-78
2022/10/23 13:34:27;;;;;;;2.67;1.17;;;;;;;;;;10412417;28;20175;-77
2022/10/23 13:39:32;;;;;;;3.45;1.10;;;;;;;;;;10415270;28;20077;-78
2022/10/23 13:44:36;;;;;;;2.45;1.10;;;;;;;;;;10401189;28;20042;-77
2022/10/23 13:49:42;;;;;;;2.05;1.08;;;;;;;;;;10418953;28;20099;-79
2022/10/23 13:54:46;;;;;;;2.00;1.27;;;;;;;;;;10425190;28;20083;-77
2022/10/23 13:59:49;;;;;;;1.65;1.15;;;;;;;;;;10424662;28;20124;-76
2022/10/23 14:04:54;;;;;;;1.17;0.95;;;;;;;;;;10415087;28;20114;-78
2022/10/23 14:09:57;;;;;;;2.80;1.25;;;;;;;;;;10423231;28;20034;-79
2022/10/23 14:15:02;;;;;;;2.35;1.35;;;;;;;;;;10429214;28;20041;-77
2022/10/23 14:20:08;;;;;;;1.92;0.93;;;;;;;;;;10422266;28;20041;-78
2022/10/23 14:25:11;;;;;;;1.88;1.20;;;;;;;;;;10453687;28;20525;-77
2022/10/23 14:30:15;;;;;;;1.85;1.30;;;;;;;;;;10452302;28;20132;-77
2022/10/23 14:35:20;;;;;;;2.38;1.40;;;;;;;;;;10443522;28;20405;-78
2022/10/23 14:40:23;;;;;;;3.20;1.30;;;;;;;;;;10437831;28;20051;-79
2022/10/23 14:45:26;;;;;;;;;;;;;;;;;;10457385;28;20045;-77
2022/10/23 14:50:31;;;;;;;1.70;1.23;;;;;;;;;;10397223;28;20004;-78
2022/10/23 14:55:35;;;;;;;4.53;1.10;;;;;;;;;;10422223;28;20045;-78
2022/10/23 15:00:39;;;;;;;1.15;1.05;;;;;;;;;;10425620;28;20079;-78
2022/10/23 15:05:44;;;;;;;1.52;1.00;;;;;;;;;;10437915;28;20044;-78
2022/10/23 15:10:48;;;;;;;2.40;1.20;;;;;;;;;;10421861;28;20064;-77
2022/10/23 15:16:01;;;;;;;5.22;1.33;;;;;;;;;;10447501;28;20517;-77
2022/10/23 15:21:07;;;;;;;2.63;1.30;;;;;;;;;;10418777;28;20394;-78
2022/10/23 15:26:12;;;;;;;4.18;1.70;;;;;;;;;;10452932;28;20049;-78
2022/10/23 15:31:36;;;;;;;4.72;1.30;;;;;;;;;;10420453;28;20044;-77
2022/10/23 15:36:41;;;;;;;4.85;1.30;;;;;;;;;;10439343;28;20456;-77
2022/10/23 15:41:45;;;;;;;5.80;1.60;;;;;;;;;;10418467;28;20098;-78
2022/10/23 15:46:48;;;;;;;2.75;1.45;;;;;;;;;;10452826;28;20037;-79
2022/10/23 15:51:53;;;;;;;3.28;1.35;;;;;;;;;;10401486;28;20103;-78
2022/10/23 15:56:57;;;;;;;2.65;1.30;;;;;;;;;;10417976;28;20064;-78
2022/10/23 16:02:01;;;;;;;2.88;1.23;;;;;;;;;;10428492;28;20057;-78
2022/10/23 16:07:07;;;;;;;2.33;1.50;;;;;;;;;;10419069;28;20041;-78
2022/10/23 16:12:11;;;;;;;2.92;1.50;;;;;;;;;;10446590;28;20052;-77
2022/10/23 16:17:14;;;;;;;5.90;1.65;;;;;;;;;;10436357;28;20483;-78
2022/10/23 16:22:20;;;;;;;5.95;1.60;;;;;;;;;;10453353;28;20036;-79
2022/10/23 16:27:23;;;;;;;2.05;1.30;;;;;;;;;;10427344;28;20081;-77
2022/10/23 16:32:33;;;;;;;2.45;1.40;;;;;;;;;;10431842;28;20041;-78
2022/10/23 16:37:35;;;;;;;;;;;;;;;;;;10397209;28;20090;-77
2022/10/23 16:42:40;;;;;;;4.07;1.77;;;;;;;;;;10403700;28;20436;-78
2022/10/23 16:47:44;;;;;;;1.90;1.52;;;;;;;;;;10419716;28;20033;-76
2022/10/23 16:52:48;;;;;;;4.47;1.90;;;;;;;;;;10449646;28;20045;-78
2022/10/23 16:57:59;;;;;;;3.45;1.90;;;;;;;;;;10430416;28;20478;-78
2022/10/23 17:03:03;;;;;;;4.40;1.92;;;;;;;;;;10423002;28;20045;-77
2022/10/23 17:08:06;;;;;;;3.63;2.00;;;;;;;;;;10398758;28;20080;-77
2022/10/23 17:13:11;;;;;;;3.47;2.10;;;;;;;;;;10449513;28;20116;-78
2022/10/23 17:18:15;;;;;;;12.05;5.88;;;;;;;;;;10439958;28;20513;-78
2022/10/23 17:23:19;;;;;;;3.38;1.60;;;;;;;;;;10431999;28;20328;-78
2022/10/23 17:28:22;;;;;;;;;;;;;;;;;;10411075;28;20038;-78
2022/10/23 17:33:27;;;;;;;6.30;2.73;;;;;;;;;;10429257;28;19929;-78
2022/10/23 17:38:34;;;;;;;7.90;2.78;;;;;;;;;;10399220;28;20103;-78
2022/10/23 17:43:38;;;;;;;5.65;2.30;;;;;;;;;;10432569;28;20544;-78
2022/10/23 17:48:42;;;;;;;;;;;;;;;;;;10428556;28;20123;-77
2022/10/23 17:53:48;;;;;;;5.97;2.38;;;;;;;;;;10450248;28;19975;-77
2022/10/23 17:58:52;;;;;;;5.55;2.50;;;;;;;;;;10421053;28;20091;-78
2022/10/23 18:04:02;;;;;;;6.10;2.03;;;;;;;;;;10408294;28;20049;-78
2022/10/23 18:09:07;;;;;;;9.48;2.97;;;;;;;;;;10417834;28;20072;-78
2022/10/23 18:14:23;;;;;;;4.57;2.28;;;;;;;;;;10370082;28;20049;-78
2022/10/23 18:19:31;;;;;;;6.75;2.28;;;;;;;;;;10395630;28;20506;-77
2022/10/23 18:24:36;;;;;;;8.75;3.20;;;;;;;;;;10449237;28;20071;-78
2022/10/23 18:29:42;;;;;;;6.60;3.10;;;;;;;;;;10428704;28;20045;-75
2022/10/23 18:34:44;;;;;;;7.53;3.08;;;;;;;;;;10420507;28;20045;-77
2022/10/23 18:39:49;;;;;;;6.60;3.30;;;;;;;;;;10426899;28;20037;-77
2022/10/23 18:44:52;;;;;;;8.73;3.88;;;;;;;;;;10430857;28;20129;-78
2022/10/23 18:49:55;;;;;;;7.15;3.00;;;;;;;;;;10443002;28;20188;-78
2022/10/23 18:54:59;;;;;;;7.88;3.53;;;;;;;;;;10447927;28;20506;-77
2022/10/23 19:00:03;;;;;;;6.85;3.13;;;;;;;;;;10432778;28;20513;-77
2022/10/23 19:05:06;;;;;;;8.25;3.55;;;;;;;;;;10417426;28;20044;-77
2022/10/23 19:10:14;;;;;;;9.00;3.95;;;;;;;;;;10434256;28;20441;-78
2022/10/23 19:15:17;;;;;;;7.00;3.50;;;;;;;;;;10448906;28;20106;-78
2022/10/23 19:20:21;;;;;;;7.83;3.50;;;;;;;;;;10438157;28;20079;-78
2022/10/23 19:25:26;;;;;;;10.10;3.65;;;;;;;;;;10429448;28;20045;-78
2022/10/23 19:30:30;;;;;;;9.25;4.53;;;;;;;;;;10439195;28;20049;-77
2022/10/23 19:35:33;;;;;;;;;;;;;;;;;;10424959;28;20046;-78
2022/10/23 19:40:38;;;;;;;10.00;3.60;;;;;;;;;;10434556;28;20007;-77
2022/10/23 19:45:41;;;;;;;8.38;3.92;;;;;;;;;;10446665;28;20039;-77
2022/10/23 19:50:44;;;;;;;15.20;6.45;;;;;;;;;;10449141;28;20069;-78
2022/10/23 19:55:48;;;;;;;8.07;4.40;;;;;;;;;;10436373;28;20087;-77
2022/10/23 20:00:51;;;;;;;18.10;5.95;;;;;;;;;;10434714;28;20043;-77
2022/10/23 20:05:54;;;;;;;28.42;14.35;;;;;;;;;;10411091;28;20048;-77
2022/10/23 20:10:59;;;;;;;10.73;5.60;;;;;;;;;;10427231;28;20045;-78
2022/10/23 20:16:01;;;;;;;14.45;5.53;;;;;;;;;;10446822;28;20040;-77
2022/10/23 20:21:05;;;;;;;10.68;4.93;;;;;;;;;;10439729;28;20059;-79
2022/10/23 20:26:10;;;;;;;12.73;4.90;;;;;;;;;;10446123;28;20086;-78
2022/10/23 20:31:14;;;;;;;8.77;4.72;;;;;;;;;;10425239;28;20679;-78
2022/10/23 20:36:22;;;;;;;9.73;4.30;;;;;;;;;;10413099;28;20574;-78
2022/10/23 20:41:27;;;;;;;9.68;3.95;;;;;;;;;;10417318;28;20044;-78
2022/10/23 20:46:30;;;;;;;9.80;4.28;;;;;;;;;;10410505;28;20116;-78
2022/10/23 20:51:34;;;;;;;7.70;3.43;;;;;;;;;;10442356;28;20106;-78
2022/10/23 20:56:38;;;;;;;8.35;3.40;;;;;;;;;;10437955;28;20112;-78
2022/10/23 21:01:42;;;;;;;5.28;2.83;;;;;;;;;;10433185;28;20136;-79
2022/10/23 21:06:45;;;;;;;;;;;;;;;;;;10411766;28;20087;-78
2022/10/23 21:12:09;;;;;;;6.55;3.20;;;;;;;;;;10441299;28;19928;-78
2022/10/23 21:17:15;;;;;;;6.75;3.45;;;;;;;;;;10435992;28;20049;-78
2022/10/23 21:22:19;;;;;;;14.48;5.45;;;;;;;;;;10449790;28;20063;-77
2022/10/23 21:27:23;;;;;;;8.45;2.53;;;;;;;;;;10426135;28;20045;-78
2022/10/23 21:32:26;;;;;;;6.45;2.88;;;;;;;;;;10430005;28;20038;-78
2022/10/23 21:37:29;;;;;;;9.18;3.33;;;;;;;;;;10408606;28;20037;-77
2022/10/23 21:42:33;;;;;;;9.27;3.30;;;;;;;;;;10429652;28;20449;-77
2022/10/23 21:47:36;;;;;;;8.85;3.50;;;;;;;;;;10437796;28;20055;-78
2022/10/23 21:52:39;;;;;;;9.27;3.60;;;;;;;;;;10443469;28;20362;-78
2022/10/23 21:57:44;;;;;;;;;;;;;;;;;;10416644;28;20495;-78
2022/10/23 22:02:48;;;;;;;9.90;2.58;;;;;;;;;;10425593;28;20600;-78
2022/10/23 22:07:52;;;;;;;8.13;3.28;;;;;;;;;;10415800;28;20064;-77
2022/10/23 22:12:54;;;;;;;11.93;2.90;;;;;;;;;;10445941;28;20434;-77
2022/10/23 22:17:59;;;;;;;9.43;2.93;;;;;;;;;;10438374;28;20037;-77
2022/10/23 22:23:02;;;;;;;7.18;2.60;;;;;;;;;;10452338;28;20045;-78
2022/10/23 22:28:05;;;;;;;12.38;2.92;;;;;;;;;;10443629;28;20036;-77
2022/10/23 22:33:09;;;;;;;9.33;2.50;;;;;;;;;;10436393;28;20045;-78
2022/10/23 22:38:12;;;;;;;9.40;2.00;;;;;;;;;;10421953;28;20048;-78
2022/10/23 22:43:15;;;;;;;9.00;2.00;;;;;;;;;;10448283;28;20504;-77
2022/10/23 22:48:19;;;;;;;8.07;2.30;;;;;;;;;;10443119;28;20041;-76
2022/10/23 22:53:21;;;;;;;7.93;2.25;;;;;;;;;;10414458;28;20041;-77
2022/10/23 22:58:25;;;;;;;7.55;2.35;;;;;;;;;;10432534;28;20041;-78
2022/10/23 23:03:30;;;;;;;8.85;2.60;;;;;;;;;;10427759;28;20407;-78
2022/10/23 23:08:32;;;;;;;11.25;2.97;;;;;;;;;;10422359;28;20403;-77
2022/10/23 23:13:35;;;;;;;2.97;1.30;;;;;;;;;;10455138;28;20040;-78
2022/10/23 23:18:42;;;;;;;10.88;2.70;;;;;;;;;;10433531;28;20040;-77
2022/10/23 23:23:45;;;;;;;6.20;1.70;;;;;;;;;;10450642;28;20045;-77
2022/10/23 23:28:49;;;;;;;6.22;1.60;;;;;;;;;;10434361;28;20517;-77
2022/10/23 23:33:51;;;;;;;;;;;;;;;;;;10438286;28;20069;-77
2022/10/23 23:38:56;;;;;;;4.68;1.70;;;;;;;;;;10373900;28;19961;-77
2022/10/23 23:43:59;;;;;;;5.50;1.40;;;;;;;;;;10372084;28;20046;-76
2022/10/23 23:49:02;;;;;;;14.38;2.13;;;;;;;;;;10372029;28;20076;-78
2022/10/23 23:54:06;;;;;;;4.77;1.23;;;;;;;;;;10372836;28;20052;-78
2022/10/23 23:59:09;;;;;;;9.23;2.35;;;;;;;;;;10396178;28;20403;-78
